sensor_id;sensor_type;location;lat;lon;timestamp;P1;durP1;ratioP1;P2;durP2;ratioP2
18411;SDS011;27097;51.738;19.472;2023-04-01T00:01:20;17.40;;;7.97;;
18411;SDS011;27097;51.738;19.472;2023-04-01T00:03:47;16.08;;;7.95;;
18411;SDS011;27097;51.738;19.472;2023-04-01T00:06:15;15.48;;;7.38;;
18411;SDS011;27097;51.738;19.472;2023-04-01T00:08:44;14.38;;;7.22;;
18411;SDS011;27097;51.738;19.472;2023-04-01T00:11:11;17.33;;;6.97;;
18411;SDS011;27097;51.738;19.472;2023-04-01T00:13:38;18.42;;;7.30;;
18411;SDS011;27097;51.738;19.472;2023-04-01T00:16:06;18.95;;;7.15;;
18411;SDS011;27097;51.738;19.472;2023-04-01T00:18:34;16.10;;;6.45;;
18411;SDS011;27097;51.738;19.472;2023-04-01T00:21:01;15.10;;;6.95;;
18411;SDS011;27097;51.738;19.472;2023-04-01T00:23:28;17.05;;;6.85;;
18411;SDS011;27097;51.738;19.472;2023-04-01T00:25:55;16.92;;;6.72;;
18411;SDS011;27097;51.738;19.472;2023-04-01T00:28:21;16.85;;;6.55;;
18411;SDS011;27097;51.738;19.472;2023-04-01T00:30:48;17.02;;;6.70;;
18411;SDS011;27097;51.738;19.472;2023-04-01T00:33:16;14.05;;;7.00;;
18411;SDS011;27097;51.738;19.472;2023-04-01T00:35:43;17.42;;;6.85;;
18411;SDS011;27097;51.738;19.472;2023-04-01T00:38:10;14.80;;;7.40;;
18411;SDS011;27097;51.738;19.472;2023-04-01T00:40:38;13.85;;;7.15;;
18411;SDS011;27097;51.738;19.472;2023-04-01T00:43:11;14.50;;;6.20;;
18411;SDS011;27097;51.738;19.472;2023-04-01T00:45:39;15.50;;;6.43;;
18411;SDS011;27097;51.738;19.472;2023-04-01T00:48:08;16.25;;;6.63;;
18411;SDS011;27097;51.738;19.472;2023-04-01T00:50:40;16.48;;;6.55;;
18411;SDS011;27097;51.738;19.472;2023-04-01T00:53:09;14.68;;;6.43;;
18411;SDS011;27097;51.738;19.472;2023-04-01T00:55:39;14.95;;;6.13;;
18411;SDS011;27097;51.738;19.472;2023-04-01T00:58:11;12.88;;;6.35;;
18411;SDS011;27097;51.738;19.472;2023-04-01T01:00:42;12.00;;;6.47;;
18411;SDS011;27097;51.738;19.472;2023-04-01T01:03:09;13.95;;;6.55;;
18411;SDS011;27097;51.738;19.472;2023-04-01T01:05:50;17.77;;;6.30;;
18411;SDS011;27097;51.738;19.472;2023-04-01T01:08:37;11.02;;;6.45;;
18411;SDS011;27097;51.738;19.472;2023-04-01T01:11:13;13.80;;;6.65;;
18411;SDS011;27097;51.738;19.472;2023-04-01T01:13:47;13.23;;;6.25;;
18411;SDS011;27097;51.738;19.472;2023-04-01T01:16:22;12.38;;;5.50;;
18411;SDS011;27097;51.738;19.472;2023-04-01T01:18:53;11.77;;;6.55;;
18411;SDS011;27097;51.738;19.472;2023-04-01T01:24:31;13.20;;;6.53;;
18411;SDS011;27097;51.738;19.472;2023-04-01T01:27:17;11.98;;;5.80;;
18411;SDS011;27097;51.738;19.472;2023-04-01T01:32:49;10.02;;;5.90;;
18411;SDS011;27097;51.738;19.472;2023-04-01T01:35:27;11.95;;;6.20;;
18411;SDS011;27097;51.738;19.472;2023-04-01T01:37:58;13.95;;;6.10;;
18411;SDS011;27097;51.738;19.472;2023-04-01T01:40:28;10.18;;;5.57;;
18411;SDS011;27097;51.738;19.472;2023-04-01T01:42:58;12.82;;;6.43;;
18411;SDS011;27097;51.738;19.472;2023-04-01T01:45:28;13.15;;;6.70;;
18411;SDS011;27097;51.738;19.472;2023-04-01T01:47:57;12.07;;;6.40;;
18411;SDS011;27097;51.738;19.472;2023-04-01T01:50:27;12.82;;;6.20;;
18411;SDS011;27097;51.738;19.472;2023-04-01T01:53:02;12.95;;;5.85;;
18411;SDS011;27097;51.738;19.472;2023-04-01T01:55:31;12.45;;;6.35;;
18411;SDS011;27097;51.738;19.472;2023-04-01T01:57:59;12.45;;;6.38;;
18411;SDS011;27097;51.738;19.472;2023-04-01T02:00:30;11.40;;;6.50;;
18411;SDS011;27097;51.738;19.472;2023-04-01T02:02:58;13.10;;;6.10;;
18411;SDS011;27097;51.738;19.472;2023-04-01T02:05:27;12.25;;;6.57;;
18411;SDS011;27097;51.738;19.472;2023-04-01T02:07:59;11.10;;;6.38;;
18411;SDS011;27097;51.738;19.472;2023-04-01T02:10:31;12.18;;;6.38;;
18411;SDS011;27097;51.738;19.472;2023-04-01T02:13:04;12.55;;;6.68;;
18411;SDS011;27097;51.738;19.472;2023-04-01T02:15:37;11.10;;;5.90;;
18411;SDS011;27097;51.738;19.472;2023-04-01T02:18:08;12.25;;;6.70;;
18411;SDS011;27097;51.738;19.472;2023-04-01T02:20:39;11.48;;;6.22;;
18411;SDS011;27097;51.738;19.472;2023-04-01T02:23:07;11.38;;;6.32;;
18411;SDS011;27097;51.738;19.472;2023-04-01T02:25:36;13.90;;;6.93;;
18411;SDS011;27097;51.738;19.472;2023-04-01T02:28:05;11.38;;;6.20;;
18411;SDS011;27097;51.738;19.472;2023-04-01T02:30:34;11.77;;;6.60;;
18411;SDS011;27097;51.738;19.472;2023-04-01T02:33:05;13.25;;;6.55;;
18411;SDS011;27097;51.738;19.472;2023-04-01T02:35:33;11.65;;;6.57;;
18411;SDS011;27097;51.738;19.472;2023-04-01T02:38:02;12.52;;;6.43;;
18411;SDS011;27097;51.738;19.472;2023-04-01T02:40:40;11.73;;;6.63;;
18411;SDS011;27097;51.738;19.472;2023-04-01T02:43:08;12.77;;;6.43;;
18411;SDS011;27097;51.738;19.472;2023-04-01T02:45:35;10.85;;;6.45;;
18411;SDS011;27097;51.738;19.472;2023-04-01T02:48:02;14.07;;;6.45;;
18411;SDS011;27097;51.738;19.472;2023-04-01T02:50:29;11.65;;;6.60;;
18411;SDS011;27097;51.738;19.472;2023-04-01T02:52:56;11.32;;;6.45;;
18411;SDS011;27097;51.738;19.472;2023-04-01T02:55:24;11.00;;;6.10;;
18411;SDS011;27097;51.738;19.472;2023-04-01T02:57:51;8.65;;;5.80;;
18411;SDS011;27097;51.738;19.472;2023-04-01T03:00:18;10.20;;;6.15;;
18411;SDS011;27097;51.738;19.472;2023-04-01T03:02:45;11.15;;;6.40;;
18411;SDS011;27097;51.738;19.472;2023-04-01T03:05:12;9.65;;;6.45;;
18411;SDS011;27097;51.738;19.472;2023-04-01T03:07:39;11.32;;;5.78;;
18411;SDS011;27097;51.738;19.472;2023-04-01T03:10:06;9.35;;;5.43;;
18411;SDS011;27097;51.738;19.472;2023-04-01T03:12:35;11.13;;;5.80;;
18411;SDS011;27097;51.738;19.472;2023-04-01T03:15:02;11.45;;;6.47;;
18411;SDS011;27097;51.738;19.472;2023-04-01T03:17:30;9.95;;;5.63;;
18411;SDS011;27097;51.738;19.472;2023-04-01T03:19:57;8.85;;;5.43;;
18411;SDS011;27097;51.738;19.472;2023-04-01T03:22:24;10.10;;;5.15;;
18411;SDS011;27097;51.738;19.472;2023-04-01T03:24:50;10.32;;;5.28;;
18411;SDS011;27097;51.738;19.472;2023-04-01T03:27:17;11.18;;;5.63;;
18411;SDS011;27097;51.738;19.472;2023-04-01T03:29:45;8.15;;;5.35;;
18411;SDS011;27097;51.738;19.472;2023-04-01T03:32:12;11.65;;;6.00;;
18411;SDS011;27097;51.738;19.472;2023-04-01T03:34:39;10.82;;;5.95;;
18411;SDS011;27097;51.738;19.472;2023-04-01T03:37:06;9.43;;;5.53;;
18411;SDS011;27097;51.738;19.472;2023-04-01T03:39:33;11.05;;;5.68;;
18411;SDS011;27097;51.738;19.472;2023-04-01T03:42:00;8.55;;;5.65;;
18411;SDS011;27097;51.738;19.472;2023-04-01T03:44:29;9.45;;;5.47;;
18411;SDS011;27097;51.738;19.472;2023-04-01T03:46:58;10.05;;;5.43;;
18411;SDS011;27097;51.738;19.472;2023-04-01T03:49:25;8.80;;;5.47;;
18411;SDS011;27097;51.738;19.472;2023-04-01T03:51:52;12.23;;;5.55;;
18411;SDS011;27097;51.738;19.472;2023-04-01T03:54:19;8.88;;;5.30;;
18411;SDS011;27097;51.738;19.472;2023-04-01T03:56:46;8.43;;;5.47;;
18411;SDS011;27097;51.738;19.472;2023-04-01T03:59:13;9.02;;;5.22;;
18411;SDS011;27097;51.738;19.472;2023-04-01T04:01:40;9.38;;;5.20;;
18411;SDS011;27097;51.738;19.472;2023-04-01T04:04:10;8.30;;;5.15;;
18411;SDS011;27097;51.738;19.472;2023-04-01T04:06:38;8.05;;;4.72;;
18411;SDS011;27097;51.738;19.472;2023-04-01T04:09:05;10.40;;;5.40;;
18411;SDS011;27097;51.738;19.472;2023-04-01T04:11:31;9.05;;;5.53;;
18411;SDS011;27097;51.738;19.472;2023-04-01T04:13:58;7.75;;;5.10;;
18411;SDS011;27097;51.738;19.472;2023-04-01T04:16:25;8.00;;;5.00;;
18411;SDS011;27097;51.738;19.472;2023-04-01T04:18:52;7.85;;;5.22;;
18411;SDS011;27097;51.738;19.472;2023-04-01T04:21:20;8.68;;;5.40;;
18411;SDS011;27097;51.738;19.472;2023-04-01T04:23:47;10.15;;;5.47;;
18411;SDS011;27097;51.738;19.472;2023-04-01T04:26:14;9.40;;;5.32;;
18411;SDS011;27097;51.738;19.472;2023-04-01T04:28:41;7.88;;;4.78;;
18411;SDS011;27097;51.738;19.472;2023-04-01T04:31:08;8.40;;;4.70;;
18411;SDS011;27097;51.738;19.472;2023-04-01T04:33:35;7.95;;;4.80;;
18411;SDS011;27097;51.738;19.472;2023-04-01T04:36:02;8.95;;;5.40;;
18411;SDS011;27097;51.738;19.472;2023-04-01T04:38:31;8.20;;;4.85;;
18411;SDS011;27097;51.738;19.472;2023-04-01T04:40:58;9.25;;;5.20;;
18411;SDS011;27097;51.738;19.472;2023-04-01T04:43:25;8.00;;;5.10;;
18411;SDS011;27097;51.738;19.472;2023-04-01T04:45:52;8.80;;;4.72;;
18411;SDS011;27097;51.738;19.472;2023-04-01T04:48:19;9.13;;;5.28;;
18411;SDS011;27097;51.738;19.472;2023-04-01T04:50:46;7.72;;;4.90;;
18411;SDS011;27097;51.738;19.472;2023-04-01T04:53:14;8.15;;;4.63;;
18411;SDS011;27097;51.738;19.472;2023-04-01T04:55:46;7.38;;;4.70;;
18411;SDS011;27097;51.738;19.472;2023-04-01T04:58:14;8.23;;;5.15;;
18411;SDS011;27097;51.738;19.472;2023-04-01T05:00:41;8.07;;;4.68;;
18411;SDS011;27097;51.738;19.472;2023-04-01T05:03:08;9.00;;;4.75;;
18411;SDS011;27097;51.738;19.472;2023-04-01T05:05:35;7.70;;;4.50;;
18411;SDS011;27097;51.738;19.472;2023-04-01T05:08:03;6.95;;;4.55;;
18411;SDS011;27097;51.738;19.472;2023-04-01T05:10:30;7.35;;;4.90;;
18411;SDS011;27097;51.738;19.472;2023-04-01T05:12:58;8.23;;;4.65;;
18411;SDS011;27097;51.738;19.472;2023-04-01T05:15:25;8.05;;;4.63;;
18411;SDS011;27097;51.738;19.472;2023-04-01T05:17:52;6.53;;;4.50;;
18411;SDS011;27097;51.738;19.472;2023-04-01T05:20:19;7.47;;;4.55;;
18411;SDS011;27097;51.738;19.472;2023-04-01T05:22:45;9.90;;;4.75;;
18411;SDS011;27097;51.738;19.472;2023-04-01T05:25:12;7.38;;;4.80;;
18411;SDS011;27097;51.738;19.472;2023-04-01T05:27:39;8.95;;;4.68;;
18411;SDS011;27097;51.738;19.472;2023-04-01T05:30:08;6.80;;;4.45;;
18411;SDS011;27097;51.738;19.472;2023-04-01T05:32:35;7.35;;;4.72;;
18411;SDS011;27097;51.738;19.472;2023-04-01T05:35:02;7.35;;;4.70;;
18411;SDS011;27097;51.738;19.472;2023-04-01T05:37:30;6.10;;;4.40;;
18411;SDS011;27097;51.738;19.472;2023-04-01T05:39:57;7.65;;;4.35;;
18411;SDS011;27097;51.738;19.472;2023-04-01T05:42:24;6.88;;;4.30;;
18411;SDS011;27097;51.738;19.472;2023-04-01T05:44:51;7.00;;;4.30;;
18411;SDS011;27097;51.738;19.472;2023-04-01T05:47:19;7.53;;;4.50;;
18411;SDS011;27097;51.738;19.472;2023-04-01T05:49:46;7.10;;;4.45;;
18411;SDS011;27097;51.738;19.472;2023-04-01T05:52:13;7.65;;;4.30;;
18411;SDS011;27097;51.738;19.472;2023-04-01T05:54:41;7.20;;;4.53;;
18411;SDS011;27097;51.738;19.472;2023-04-01T05:57:07;5.45;;;3.97;;
18411;SDS011;27097;51.738;19.472;2023-04-01T05:59:34;7.13;;;4.80;;
18411;SDS011;27097;51.738;19.472;2023-04-01T06:02:01;7.13;;;4.15;;
18411;SDS011;27097;51.738;19.472;2023-04-01T06:04:31;6.15;;;4.30;;
18411;SDS011;27097;51.738;19.472;2023-04-01T06:07:05;7.40;;;4.28;;
18411;SDS011;27097;51.738;19.472;2023-04-01T06:09:36;7.18;;;4.10;;
18411;SDS011;27097;51.738;19.472;2023-04-01T06:12:19;6.43;;;3.95;;
18411;SDS011;27097;51.738;19.472;2023-04-01T06:15:06;6.15;;;4.03;;
18411;SDS011;27097;51.738;19.472;2023-04-01T06:17:47;5.55;;;4.20;;
18411;SDS011;27097;51.738;19.472;2023-04-01T06:20:27;8.68;;;4.70;;
18411;SDS011;27097;51.738;19.472;2023-04-01T06:23:05;7.03;;;4.28;;
18411;SDS011;27097;51.738;19.472;2023-04-01T06:25:58;7.25;;;4.30;;
18411;SDS011;27097;51.738;19.472;2023-04-01T06:28:40;7.15;;;4.53;;
18411;SDS011;27097;51.738;19.472;2023-04-01T06:31:24;6.85;;;4.32;;
18411;SDS011;27097;51.738;19.472;2023-04-01T06:34:05;5.50;;;3.90;;
18411;SDS011;27097;51.738;19.472;2023-04-01T06:36:49;7.15;;;4.07;;
18411;SDS011;27097;51.738;19.472;2023-04-01T06:39:27;6.30;;;4.20;;
18411;SDS011;27097;51.738;19.472;2023-04-01T06:45:05;6.45;;;4.20;;
18411;SDS011;27097;51.738;19.472;2023-04-01T06:47:43;6.80;;;4.00;;
18411;SDS011;27097;51.738;19.472;2023-04-01T06:50:24;7.32;;;4.25;;
18411;SDS011;27097;51.738;19.472;2023-04-01T06:52:58;5.63;;;3.70;;
18411;SDS011;27097;51.738;19.472;2023-04-01T06:55:32;6.30;;;3.88;;
18411;SDS011;27097;51.738;19.472;2023-04-01T06:58:06;6.10;;;3.90;;
18411;SDS011;27097;51.738;19.472;2023-04-01T07:00:40;5.70;;;4.20;;
18411;SDS011;27097;51.738;19.472;2023-04-01T07:03:13;7.60;;;4.18;;
18411;SDS011;27097;51.738;19.472;2023-04-01T07:05:45;6.68;;;4.68;;
18411;SDS011;27097;51.738;19.472;2023-04-01T07:08:15;8.35;;;4.70;;
18411;SDS011;27097;51.738;19.472;2023-04-01T07:10:46;9.63;;;5.00;;
18411;SDS011;27097;51.738;19.472;2023-04-01T07:13:18;10.60;;;5.60;;
18411;SDS011;27097;51.738;19.472;2023-04-01T07:15:58;12.35;;;5.25;;
18411;SDS011;27097;51.738;19.472;2023-04-01T07:18:32;7.75;;;5.22;;
18411;SDS011;27097;51.738;19.472;2023-04-01T07:21:04;7.93;;;5.47;;
18411;SDS011;27097;51.738;19.472;2023-04-01T07:23:44;14.90;;;5.53;;
18411;SDS011;27097;51.738;19.472;2023-04-01T07:26:16;7.07;;;5.32;;
18411;SDS011;27097;51.738;19.472;2023-04-01T07:28:45;14.27;;;5.38;;
18411;SDS011;27097;51.738;19.472;2023-04-01T07:31:15;9.07;;;4.88;;
18411;SDS011;27097;51.738;19.472;2023-04-01T07:33:51;7.50;;;5.18;;
18411;SDS011;27097;51.738;19.472;2023-04-01T07:36:28;10.75;;;5.28;;
18411;SDS011;27097;51.738;19.472;2023-04-01T07:39:21;8.77;;;4.93;;
18411;SDS011;27097;51.738;19.472;2023-04-01T07:41:56;11.20;;;4.85;;
18411;SDS011;27097;51.738;19.472;2023-04-01T07:44:29;10.55;;;4.88;;
18411;SDS011;27097;51.738;19.472;2023-04-01T07:50:10;8.95;;;5.18;;
18411;SDS011;27097;51.738;19.472;2023-04-01T07:52:44;11.35;;;4.90;;
18411;SDS011;27097;51.738;19.472;2023-04-01T07:55:21;11.02;;;5.00;;
18411;SDS011;27097;51.738;19.472;2023-04-01T07:57:53;16.67;;;5.35;;
18411;SDS011;27097;51.738;19.472;2023-04-01T08:00:27;10.68;;;4.78;;
18411;SDS011;27097;51.738;19.472;2023-04-01T08:03:07;17.20;;;4.85;;
18411;SDS011;27097;51.738;19.472;2023-04-01T08:05:46;21.85;;;5.47;;
18411;SDS011;27097;51.738;19.472;2023-04-01T08:08:22;13.65;;;5.03;;
18411;SDS011;27097;51.738;19.472;2023-04-01T08:10:57;17.70;;;4.85;;
18411;SDS011;27097;51.738;19.472;2023-04-01T08:13:33;20.55;;;5.53;;
18411;SDS011;27097;51.738;19.472;2023-04-01T08:16:15;36.53;;;5.97;;
18411;SDS011;27097;51.738;19.472;2023-04-01T08:18:51;17.38;;;5.72;;
18411;SDS011;27097;51.738;19.472;2023-04-01T08:21:25;13.80;;;4.72;;
18411;SDS011;27097;51.738;19.472;2023-04-01T08:23:55;9.50;;;4.38;;
18411;SDS011;27097;51.738;19.472;2023-04-01T08:26:28;12.85;;;5.03;;
18411;SDS011;27097;51.738;19.472;2023-04-01T08:29:02;13.45;;;3.95;;
18411;SDS011;27097;51.738;19.472;2023-04-01T08:31:34;12.02;;;5.07;;
18411;SDS011;27097;51.738;19.472;2023-04-01T08:34:05;11.02;;;4.35;;
18411;SDS011;27097;51.738;19.472;2023-04-01T08:36:40;9.35;;;4.63;;
18411;SDS011;27097;51.738;19.472;2023-04-01T08:39:12;10.88;;;5.00;;
18411;SDS011;27097;51.738;19.472;2023-04-01T08:42:00;10.13;;;4.72;;
18411;SDS011;27097;51.738;19.472;2023-04-01T08:44:37;7.95;;;4.07;;
18411;SDS011;27097;51.738;19.472;2023-04-01T08:47:41;11.93;;;4.75;;
18411;SDS011;27097;51.738;19.472;2023-04-01T08:50:23;10.43;;;5.18;;
18411;SDS011;27097;51.738;19.472;2023-04-01T08:53:10;13.82;;;5.55;;
18411;SDS011;27097;51.738;19.472;2023-04-01T08:55:46;10.73;;;5.53;;
18411;SDS011;27097;51.738;19.472;2023-04-01T08:58:46;7.70;;;5.68;;
18411;SDS011;27097;51.738;19.472;2023-04-01T09:01:29;10.30;;;5.47;;
18411;SDS011;27097;51.738;19.472;2023-04-01T09:04:21;23.40;;;8.38;;
18411;SDS011;27097;51.738;19.472;2023-04-01T09:07:04;16.15;;;7.72;;
18411;SDS011;27097;51.738;19.472;2023-04-01T09:12:57;12.68;;;7.93;;
18411;SDS011;27097;51.738;19.472;2023-04-01T09:15:45;13.68;;;7.70;;
18411;SDS011;27097;51.738;19.472;2023-04-01T09:21:57;11.07;;;5.15;;
18411;SDS011;27097;51.738;19.472;2023-04-01T09:24:40;8.70;;;4.63;;
18411;SDS011;27097;51.738;19.472;2023-04-01T09:27:43;8.07;;;4.60;;
18411;SDS011;27097;51.738;19.472;2023-04-01T09:30:20;14.13;;;4.40;;
18411;SDS011;27097;51.738;19.472;2023-04-01T09:33:20;6.95;;;4.13;;
18411;SDS011;27097;51.738;19.472;2023-04-01T09:36:12;8.73;;;4.20;;
18411;SDS011;27097;51.738;19.472;2023-04-01T09:39:12;8.48;;;4.25;;
18411;SDS011;27097;51.738;19.472;2023-04-01T09:41:57;7.63;;;3.97;;
18411;SDS011;27097;51.738;19.472;2023-04-01T09:44:35;9.00;;;4.82;;
18411;SDS011;27097;51.738;19.472;2023-04-01T09:47:54;7.18;;;4.95;;
18411;SDS011;27097;51.738;19.472;2023-04-01T09:50:38;6.70;;;4.28;;
18411;SDS011;27097;51.738;19.472;2023-04-01T10:03:23;5.07;;;3.05;;
18411;SDS011;27097;51.738;19.472;2023-04-01T10:09:39;4.97;;;3.10;;
18411;SDS011;27097;51.738;19.472;2023-04-01T10:12:47;7.25;;;3.25;;
18411;SDS011;27097;51.738;19.472;2023-04-01T10:35:14;7.53;;;3.00;;
18411;SDS011;27097;51.738;19.472;2023-04-01T10:38:09;3.83;;;3.30;;
18411;SDS011;27097;51.738;19.472;2023-04-01T10:48:12;1.92;;;1.58;;
18411;SDS011;27097;51.738;19.472;2023-04-01T10:57:00;1.73;;;1.50;;
18411;SDS011;27097;51.738;19.472;2023-04-01T11:03:44;2.00;;;1.80;;
18411;SDS011;27097;51.738;19.472;2023-04-01T11:13:03;2.60;;;1.80;;
18411;SDS011;27097;51.738;19.472;2023-04-01T11:16:05;4.25;;;2.30;;
18411;SDS011;27097;51.738;19.472;2023-04-01T11:34:28;5.53;;;2.28;;
18411;SDS011;27097;51.738;19.472;2023-04-01T11:37:10;7.22;;;2.05;;
18411;SDS011;27097;51.738;19.472;2023-04-01T11:39:54;4.97;;;2.10;;
18411;SDS011;27097;51.738;19.472;2023-04-01T11:42:30;6.57;;;2.10;;
18411;SDS011;27097;51.738;19.472;2023-04-01T11:45:10;3.15;;;2.25;;
18411;SDS011;27097;51.738;19.472;2023-04-01T11:47:51;6.28;;;2.15;;
18411;SDS011;27097;51.738;19.472;2023-04-01T11:53:57;7.47;;;2.63;;
18411;SDS011;27097;51.738;19.472;2023-04-01T11:56:45;4.45;;;2.33;;
18411;SDS011;27097;51.738;19.472;2023-04-01T11:59:53;3.97;;;2.30;;
18411;SDS011;27097;51.738;19.472;2023-04-01T12:05:43;10.20;;;3.25;;
18411;SDS011;27097;51.738;19.472;2023-04-01T12:08:24;5.22;;;2.88;;
18411;SDS011;27097;51.738;19.472;2023-04-01T12:10:59;8.68;;;2.78;;
18411;SDS011;27097;51.738;19.472;2023-04-01T12:13:36;5.90;;;2.88;;
18411;SDS011;27097;51.738;19.472;2023-04-01T12:16:42;3.63;;;2.40;;
18411;SDS011;27097;51.738;19.472;2023-04-01T12:19:23;5.60;;;2.65;;
18411;SDS011;27097;51.738;19.472;2023-04-01T12:22:04;5.65;;;2.60;;
18411;SDS011;27097;51.738;19.472;2023-04-01T12:24:48;5.20;;;2.50;;
18411;SDS011;27097;51.738;19.472;2023-04-01T12:27:27;4.18;;;2.45;;
18411;SDS011;27097;51.738;19.472;2023-04-01T12:30:09;7.57;;;2.30;;
18411;SDS011;27097;51.738;19.472;2023-04-01T12:32:50;4.63;;;2.35;;
18411;SDS011;27097;51.738;19.472;2023-04-01T12:35:32;4.05;;;2.13;;
18411;SDS011;27097;51.738;19.472;2023-04-01T12:54:17;11.27;;;3.60;;
18411;SDS011;27097;51.738;19.472;2023-04-01T12:57:06;12.23;;;3.83;;
18411;SDS011;27097;51.738;19.472;2023-04-01T13:00:21;9.90;;;3.67;;
18411;SDS011;27097;51.738;19.472;2023-04-01T13:03:02;11.38;;;3.28;;
18411;SDS011;27097;51.738;19.472;2023-04-01T13:09:01;8.05;;;3.28;;
18411;SDS011;27097;51.738;19.472;2023-04-01T13:11:44;7.85;;;3.25;;
18411;SDS011;27097;51.738;19.472;2023-04-01T13:14:26;6.53;;;3.30;;
18411;SDS011;27097;51.738;19.472;2023-04-01T13:17:10;10.90;;;3.42;;
18411;SDS011;27097;51.738;19.472;2023-04-01T13:19:57;6.00;;;3.50;;
18411;SDS011;27097;51.738;19.472;2023-04-01T13:22:41;11.07;;;3.55;;
18411;SDS011;27097;51.738;19.472;2023-04-01T13:25:19;10.45;;;3.55;;
18411;SDS011;27097;51.738;19.472;2023-04-01T13:27:54;9.18;;;3.63;;
18411;SDS011;27097;51.738;19.472;2023-04-01T13:30:30;6.53;;;3.38;;
18411;SDS011;27097;51.738;19.472;2023-04-01T13:33:05;7.55;;;3.33;;
18411;SDS011;27097;51.738;19.472;2023-04-01T13:35:41;11.68;;;3.60;;
18411;SDS011;27097;51.738;19.472;2023-04-01T13:38:20;6.18;;;3.35;;
18411;SDS011;27097;51.738;19.472;2023-04-01T13:40:58;5.90;;;3.10;;
18411;SDS011;27097;51.738;19.472;2023-04-01T13:43:36;5.55;;;3.33;;
18411;SDS011;27097;51.738;19.472;2023-04-01T13:46:12;7.68;;;3.90;;
18411;SDS011;27097;51.738;19.472;2023-04-01T13:52:08;8.93;;;4.20;;
18411;SDS011;27097;51.738;19.472;2023-04-01T13:54:59;7.97;;;4.38;;
18411;SDS011;27097;51.738;19.472;2023-04-01T14:00:54;8.10;;;4.28;;
18411;SDS011;27097;51.738;19.472;2023-04-01T14:07:07;19.50;;;4.70;;
18411;SDS011;27097;51.738;19.472;2023-04-01T14:09:50;9.80;;;4.13;;
18411;SDS011;27097;51.738;19.472;2023-04-01T14:12:33;7.60;;;4.18;;
18411;SDS011;27097;51.738;19.472;2023-04-01T14:18:18;10.77;;;4.07;;
18411;SDS011;27097;51.738;19.472;2023-04-01T14:30:20;8.75;;;4.22;;
18411;SDS011;27097;51.738;19.472;2023-04-01T14:33:11;9.60;;;4.25;;
18411;SDS011;27097;51.738;19.472;2023-04-01T14:35:49;9.85;;;4.28;;
18411;SDS011;27097;51.738;19.472;2023-04-01T14:38:47;15.05;;;4.53;;
18411;SDS011;27097;51.738;19.472;2023-04-01T14:41:25;13.95;;;4.07;;
18411;SDS011;27097;51.738;19.472;2023-04-01T14:47:28;13.35;;;4.30;;
18411;SDS011;27097;51.738;19.472;2023-04-01T14:50:09;11.80;;;4.00;;
18411;SDS011;27097;51.738;19.472;2023-04-01T15:09:41;13.05;;;4.97;;
18411;SDS011;27097;51.738;19.472;2023-04-01T15:12:40;11.02;;;5.10;;
18411;SDS011;27097;51.738;19.472;2023-04-01T15:15:49;11.23;;;5.32;;
18411;SDS011;27097;51.738;19.472;2023-04-01T15:18:32;13.63;;;4.80;;
18411;SDS011;27097;51.738;19.472;2023-04-01T15:21:09;8.90;;;4.88;;
18411;SDS011;27097;51.738;19.472;2023-04-01T15:23:56;10.82;;;4.97;;
18411;SDS011;27097;51.738;19.472;2023-04-01T15:29:39;11.68;;;5.00;;
18411;SDS011;27097;51.738;19.472;2023-04-01T15:32:17;16.75;;;5.57;;
18411;SDS011;27097;51.738;19.472;2023-04-01T15:34:51;9.93;;;5.22;;
18411;SDS011;27097;51.738;19.472;2023-04-01T15:37:28;9.95;;;5.75;;
18411;SDS011;27097;51.738;19.472;2023-04-01T15:40:06;10.32;;;5.90;;
18411;SDS011;27097;51.738;19.472;2023-04-01T15:42:54;14.88;;;5.80;;
18411;SDS011;27097;51.738;19.472;2023-04-01T15:45:31;9.02;;;5.90;;
18411;SDS011;27097;51.738;19.472;2023-04-01T15:48:06;12.70;;;5.72;;
18411;SDS011;27097;51.738;19.472;2023-04-01T15:50:51;13.27;;;5.40;;
18411;SDS011;27097;51.738;19.472;2023-04-01T15:53:28;9.60;;;6.15;;
18411;SDS011;27097;51.738;19.472;2023-04-01T15:56:19;10.90;;;6.10;;
18411;SDS011;27097;51.738;19.472;2023-04-01T15:58:59;11.60;;;6.30;;
18411;SDS011;27097;51.738;19.472;2023-04-01T16:01:46;10.00;;;5.90;;
18411;SDS011;27097;51.738;19.472;2023-04-01T16:04:38;11.65;;;5.65;;
18411;SDS011;27097;51.738;19.472;2023-04-01T16:07:29;10.02;;;5.90;;
18411;SDS011;27097;51.738;19.472;2023-04-01T16:10:10;9.27;;;5.57;;
18411;SDS011;27097;51.738;19.472;2023-04-01T16:12:51;7.80;;;5.22;;
18411;SDS011;27097;51.738;19.472;2023-04-01T16:15:33;7.85;;;5.20;;
18411;SDS011;27097;51.738;19.472;2023-04-01T16:18:25;11.55;;;5.57;;
18411;SDS011;27097;51.738;19.472;2023-04-01T16:21:08;9.70;;;5.13;;
18411;SDS011;27097;51.738;19.472;2023-04-01T16:23:42;11.50;;;5.65;;
18411;SDS011;27097;51.738;19.472;2023-04-01T16:26:17;13.48;;;5.07;;
18411;SDS011;27097;51.738;19.472;2023-04-01T16:28:49;11.65;;;5.32;;
18411;SDS011;27097;51.738;19.472;2023-04-01T16:31:29;10.48;;;5.28;;
18411;SDS011;27097;51.738;19.472;2023-04-01T16:34:01;11.35;;;5.80;;
18411;SDS011;27097;51.738;19.472;2023-04-01T16:36:35;7.40;;;5.20;;
18411;SDS011;27097;51.738;19.472;2023-04-01T16:39:15;9.20;;;5.45;;
18411;SDS011;27097;51.738;19.472;2023-04-01T16:42:06;8.07;;;5.28;;
18411;SDS011;27097;51.738;19.472;2023-04-01T16:44:44;7.63;;;4.82;;
18411;SDS011;27097;51.738;19.472;2023-04-01T16:47:19;10.00;;;4.90;;
18411;SDS011;27097;51.738;19.472;2023-04-01T16:49:50;8.02;;;4.95;;
18411;SDS011;27097;51.738;19.472;2023-04-01T16:52:29;8.65;;;5.13;;
18411;SDS011;27097;51.738;19.472;2023-04-01T16:55:01;9.50;;;5.57;;
18411;SDS011;27097;51.738;19.472;2023-04-01T16:57:43;9.02;;;5.03;;
18411;SDS011;27097;51.738;19.472;2023-04-01T17:00:30;7.20;;;4.95;;
18411;SDS011;27097;51.738;19.472;2023-04-01T17:03:20;6.47;;;4.90;;
18411;SDS011;27097;51.738;19.472;2023-04-01T17:06:16;10.00;;;5.38;;
18411;SDS011;27097;51.738;19.472;2023-04-01T17:09:04;10.38;;;5.60;;
18411;SDS011;27097;51.738;19.472;2023-04-01T17:11:53;10.95;;;6.28;;
18411;SDS011;27097;51.738;19.472;2023-04-01T17:14:23;11.70;;;7.18;;
18411;SDS011;27097;51.738;19.472;2023-04-01T17:17:13;14.27;;;7.00;;
18411;SDS011;27097;51.738;19.472;2023-04-01T17:19:52;12.65;;;7.22;;
18411;SDS011;27097;51.738;19.472;2023-04-01T17:22:37;18.75;;;7.95;;
18411;SDS011;27097;51.738;19.472;2023-04-01T17:25:17;11.23;;;7.25;;
18411;SDS011;27097;51.738;19.472;2023-04-01T17:27:57;12.25;;;7.15;;
18411;SDS011;27097;51.738;19.472;2023-04-01T17:30:31;12.13;;;7.70;;
18411;SDS011;27097;51.738;19.472;2023-04-01T17:33:14;16.88;;;8.00;;
18411;SDS011;27097;51.738;19.472;2023-04-01T17:35:56;11.82;;;7.28;;
18411;SDS011;27097;51.738;19.472;2023-04-01T17:38:37;12.82;;;7.00;;
18411;SDS011;27097;51.738;19.472;2023-04-01T17:41:28;10.82;;;6.60;;
18411;SDS011;27097;51.738;19.472;2023-04-01T17:44:07;14.35;;;7.15;;
18411;SDS011;27097;51.738;19.472;2023-04-01T17:46:56;10.45;;;6.75;;
18411;SDS011;27097;51.738;19.472;2023-04-01T17:49:31;9.52;;;7.07;;
18411;SDS011;27097;51.738;19.472;2023-04-01T17:52:06;12.70;;;6.75;;
18411;SDS011;27097;51.738;19.472;2023-04-01T17:54:44;9.25;;;6.50;;
18411;SDS011;27097;51.738;19.472;2023-04-01T17:57:25;11.63;;;6.40;;
18411;SDS011;27097;51.738;19.472;2023-04-01T18:00:01;10.32;;;6.78;;
18411;SDS011;27097;51.738;19.472;2023-04-01T18:02:34;11.73;;;7.40;;
18411;SDS011;27097;51.738;19.472;2023-04-01T18:05:21;11.70;;;7.10;;